sensor_id;sensor_type;location;lat;lon;timestamp;P1;durP1;ratioP1;P2;durP2;ratioP2
31734;SDS011;18313;48.518;9.124;2022-10-16T00:02:30;1.95;;;1.10;;
31734;SDS011;18313;48.518;9.124;2022-10-16T00:05:16;3.88;;;1.20;;
31734;SDS011;18313;48.518;9.124;2022-10-16T00:08:01;1.45;;;1.00;;
31734;SDS011;18313;48.518;9.124;2022-10-16T00:10:47;4.55;;;1.30;;
31734;SDS011;18313;48.518;9.124;2022-10-16T00:13:34;2.30;;;1.08;;
31734;SDS011;18313;48.518;9.124;2022-10-16T00:16:20;3.83;;;1.40;;
31734;SDS011;18313;48.518;9.124;2022-10-16T00:19:06;3.20;;;1.10;;
31734;SDS011;18313;48.518;9.124;2022-10-16T00:21:51;1.60;;;1.10;;
31734;SDS011;18313;48.518;9.124;2022-10-16T00:24:37;3.42;;;1.63;;
31734;SDS011;18313;48.518;9.124;2022-10-16T00:27:22;2.08;;;1.00;;
31734;SDS011;18313;48.518;9.124;2022-10-16T00:30:08;4.88;;;1.20;;
31734;SDS011;18313;48.518;9.124;2022-10-16T00:32:54;4.30;;;1.40;;
31734;SDS011;18313;48.518;9.124;2022-10-16T00:35:39;2.70;;;1.30;;
31734;SDS011;18313;48.518;9.124;2022-10-16T00:38:25;4.68;;;1.30;;
31734;SDS011;18313;48.518;9.124;2022-10-16T00:41:12;2.08;;;1.30;;
31734;SDS011;18313;48.518;9.124;2022-10-16T00:44:01;2.70;;;1.30;;
31734;SDS011;18313;48.518;9.124;2022-10-16T00:47:11;2.25;;;1.20;;
31734;SDS011;18313;48.518;9.124;2022-10-16T00:50:11;2.60;;;1.50;;
31734;SDS011;18313;48.518;9.124;2022-10-16T00:53:11;3.05;;;1.50;;
31734;SDS011;18313;48.518;9.124;2022-10-16T00:55:56;4.75;;;1.60;;
31734;SDS011;18313;48.518;9.124;2022-10-16T00:58:42;5.43;;;1.60;;
31734;SDS011;18313;48.518;9.124;2022-10-16T01:01:27;3.03;;;1.63;;
31734;SDS011;18313;48.518;9.124;2022-10-16T01:04:13;5.07;;;1.45;;
31734;SDS011;18313;48.518;9.124;2022-10-16T01:15:56;2.33;;;1.42;;
31734;SDS011;18313;48.518;9.124;2022-10-16T01:18:57;3.38;;;1.35;;
31734;SDS011;18313;48.518;9.124;2022-10-16T01:21:56;2.25;;;1.17;;
31734;SDS011;18313;48.518;9.124;2022-10-16T01:24:44;3.70;;;1.60;;
31734;SDS011;18313;48.518;9.124;2022-10-16T01:27:33;4.47;;;1.67;;
31734;SDS011;18313;48.518;9.124;2022-10-16T01:30:23;3.53;;;1.23;;
31734;SDS011;18313;48.518;9.124;2022-10-16T01:33:14;3.22;;;1.45;;
31734;SDS011;18313;48.518;9.124;2022-10-16T01:36:06;3.97;;;1.40;;
31734;SDS011;18313;48.518;9.124;2022-10-16T01:38:57;3.03;;;1.38;;
31734;SDS011;18313;48.518;9.124;2022-10-16T01:41:49;3.88;;;1.40;;
31734;SDS011;18313;48.518;9.124;2022-10-16T01:44:39;2.55;;;1.30;;
31734;SDS011;18313;48.518;9.124;2022-10-16T01:47:27;3.03;;;1.50;;
31734;SDS011;18313;48.518;9.124;2022-10-16T01:50:16;2.15;;;1.42;;
31734;SDS011;18313;48.518;9.124;2022-10-16T01:53:04;4.38;;;1.85;;
31734;SDS011;18313;48.518;9.124;2022-10-16T01:55:52;5.57;;;1.40;;
31734;SDS011;18313;48.518;9.124;2022-10-16T01:58:42;2.35;;;1.27;;
31734;SDS011;18313;48.518;9.124;2022-10-16T02:01:31;2.55;;;1.40;;
31734;SDS011;18313;48.518;9.124;2022-10-16T02:04:30;2.35;;;1.40;;
31734;SDS011;18313;48.518;9.124;2022-10-16T02:07:19;3.30;;;1.58;;
31734;SDS011;18313;48.518;9.124;2022-10-16T02:10:05;2.42;;;1.30;;
31734;SDS011;18313;48.518;9.124;2022-10-16T02:12:53;2.38;;;1.23;;
31734;SDS011;18313;48.518;9.124;2022-10-16T02:15:43;2.17;;;1.20;;
31734;SDS011;18313;48.518;9.124;2022-10-16T02:18:29;2.70;;;1.20;;
31734;SDS011;18313;48.518;9.124;2022-10-16T02:21:19;2.40;;;1.33;;
31734;SDS011;18313;48.518;9.124;2022-10-16T02:27:26;4.82;;;1.50;;
31734;SDS011;18313;48.518;9.124;2022-10-16T02:33:05;3.83;;;1.35;;
31734;SDS011;18313;48.518;9.124;2022-10-16T02:35:54;2.33;;;1.15;;
31734;SDS011;18313;48.518;9.124;2022-10-16T02:38:40;1.73;;;1.05;;
31734;SDS011;18313;48.518;9.124;2022-10-16T02:41:26;3.50;;;1.38;;
31734;SDS011;18313;48.518;9.124;2022-10-16T02:44:12;2.10;;;1.30;;
31734;SDS011;18313;48.518;9.124;2022-10-16T02:46:58;1.75;;;1.20;;
31734;SDS011;18313;48.518;9.124;2022-10-16T02:49:43;2.80;;;1.15;;
31734;SDS011;18313;48.518;9.124;2022-10-16T02:52:29;3.67;;;1.30;;
31734;SDS011;18313;48.518;9.124;2022-10-16T02:55:14;2.67;;;1.27;;
31734;SDS011;18313;48.518;9.124;2022-10-16T02:58:00;1.85;;;1.17;;
31734;SDS011;18313;48.518;9.124;2022-10-16T03:00:45;2.10;;;1.30;;
31734;SDS011;18313;48.518;9.124;2022-10-16T03:03:31;1.85;;;1.08;;
31734;SDS011;18313;48.518;9.124;2022-10-16T03:06:17;1.58;;;1.10;;
31734;SDS011;18313;48.518;9.124;2022-10-16T03:09:03;2.17;;;1.30;;
31734;SDS011;18313;48.518;9.124;2022-10-16T03:11:48;4.32;;;1.20;;
31734;SDS011;18313;48.518;9.124;2022-10-16T03:14:34;3.53;;;1.27;;
31734;SDS011;18313;48.518;9.124;2022-10-16T03:17:19;2.20;;;1.27;;
31734;SDS011;18313;48.518;9.124;2022-10-16T03:20:05;2.17;;;1.25;;
31734;SDS011;18313;48.518;9.124;2022-10-16T03:22:51;2.38;;;1.23;;
31734;SDS011;18313;48.518;9.124;2022-10-16T03:25:36;6.90;;;1.27;;
31734;SDS011;18313;48.518;9.124;2022-10-16T03:28:22;1.83;;;1.13;;
31734;SDS011;18313;48.518;9.124;2022-10-16T03:31:07;2.75;;;1.30;;
31734;SDS011;18313;48.518;9.124;2022-10-16T03:33:53;2.58;;;1.10;;
31734;SDS011;18313;48.518;9.124;2022-10-16T03:36:38;2.40;;;1.30;;
31734;SDS011;18313;48.518;9.124;2022-10-16T03:39:24;2.00;;;1.13;;
31734;SDS011;18313;48.518;9.124;2022-10-16T03:42:09;2.40;;;1.33;;
31734;SDS011;18313;48.518;9.124;2022-10-16T03:44:55;3.20;;;1.33;;
31734;SDS011;18313;48.518;9.124;2022-10-16T03:47:41;4.70;;;1.40;;
31734;SDS011;18313;48.518;9.124;2022-10-16T03:50:27;9.23;;;1.60;;
31734;SDS011;18313;48.518;9.124;2022-10-16T03:53:12;4.18;;;1.35;;
31734;SDS011;18313;48.518;9.124;2022-10-16T03:55:58;5.43;;;1.40;;
31734;SDS011;18313;48.518;9.124;2022-10-16T03:58:43;2.63;;;1.33;;
31734;SDS011;18313;48.518;9.124;2022-10-16T04:01:29;5.55;;;1.50;;
31734;SDS011;18313;48.518;9.124;2022-10-16T04:04:14;2.15;;;1.25;;
31734;SDS011;18313;48.518;9.124;2022-10-16T04:07:00;3.83;;;1.17;;
31734;SDS011;18313;48.518;9.124;2022-10-16T04:09:45;8.32;;;1.40;;
31734;SDS011;18313;48.518;9.124;2022-10-16T04:12:31;8.02;;;1.55;;
31734;SDS011;18313;48.518;9.124;2022-10-16T04:15:17;2.88;;;1.40;;
31734;SDS011;18313;48.518;9.124;2022-10-16T04:18:03;2.90;;;1.20;;
31734;SDS011;18313;48.518;9.124;2022-10-16T04:20:49;4.20;;;1.38;;
31734;SDS011;18313;48.518;9.124;2022-10-16T04:23:34;5.38;;;1.55;;
31734;SDS011;18313;48.518;9.124;2022-10-16T04:26:20;3.75;;;1.50;;
31734;SDS011;18313;48.518;9.124;2022-10-16T04:29:05;4.10;;;1.42;;
31734;SDS011;18313;48.518;9.124;2022-10-16T04:31:52;4.70;;;1.50;;
31734;SDS011;18313;48.518;9.124;2022-10-16T04:34:38;2.88;;;1.27;;
31734;SDS011;18313;48.518;9.124;2022-10-16T04:37:24;2.33;;;1.20;;
31734;SDS011;18313;48.518;9.124;2022-10-16T04:40:11;3.58;;;1.40;;
31734;SDS011;18313;48.518;9.124;2022-10-16T04:42:57;3.05;;;1.30;;
31734;SDS011;18313;48.518;9.124;2022-10-16T04:45:43;3.10;;;1.40;;
31734;SDS011;18313;48.518;9.124;2022-10-16T04:48:29;4.20;;;1.50;;
31734;SDS011;18313;48.518;9.124;2022-10-16T04:51:14;2.65;;;1.40;;
31734;SDS011;18313;48.518;9.124;2022-10-16T04:54:00;2.70;;;1.33;;
31734;SDS011;18313;48.518;9.124;2022-10-16T04:56:45;6.00;;;1.40;;
31734;SDS011;18313;48.518;9.124;2022-10-16T04:59:31;4.82;;;1.95;;
31734;SDS011;18313;48.518;9.124;2022-10-16T05:02:17;5.30;;;1.52;;
31734;SDS011;18313;48.518;9.124;2022-10-16T05:05:02;3.50;;;1.20;;
31734;SDS011;18313;48.518;9.124;2022-10-16T05:07:48;3.33;;;1.20;;
31734;SDS011;18313;48.518;9.124;2022-10-16T05:10:36;5.32;;;1.50;;
31734;SDS011;18313;48.518;9.124;2022-10-16T05:13:22;4.00;;;1.38;;
31734;SDS011;18313;48.518;9.124;2022-10-16T05:16:08;4.95;;;1.48;;
31734;SDS011;18313;48.518;9.124;2022-10-16T05:18:53;3.20;;;1.83;;
31734;SDS011;18313;48.518;9.124;2022-10-16T05:21:48;4.68;;;1.50;;
31734;SDS011;18313;48.518;9.124;2022-10-16T05:24:33;4.90;;;1.40;;
31734;SDS011;18313;48.518;9.124;2022-10-16T05:27:18;2.17;;;1.23;;
31734;SDS011;18313;48.518;9.124;2022-10-16T05:30:04;2.97;;;1.20;;
31734;SDS011;18313;48.518;9.124;2022-10-16T05:32:55;2.47;;;1.38;;
31734;SDS011;18313;48.518;9.124;2022-10-16T05:35:40;3.20;;;1.45;;
31734;SDS011;18313;48.518;9.124;2022-10-16T05:38:26;2.13;;;1.30;;
31734;SDS011;18313;48.518;9.124;2022-10-16T05:41:11;3.33;;;1.30;;
31734;SDS011;18313;48.518;9.124;2022-10-16T05:43:57;3.50;;;1.50;;
31734;SDS011;18313;48.518;9.124;2022-10-16T05:46:43;4.95;;;1.40;;
31734;SDS011;18313;48.518;9.124;2022-10-16T05:49:28;2.63;;;1.20;;
31734;SDS011;18313;48.518;9.124;2022-10-16T05:52:14;7.35;;;1.40;;
31734;SDS011;18313;48.518;9.124;2022-10-16T05:54:59;3.45;;;1.20;;
31734;SDS011;18313;48.518;9.124;2022-10-16T05:57:45;2.55;;;1.33;;
31734;SDS011;18313;48.518;9.124;2022-10-16T06:00:30;4.95;;;1.58;;
31734;SDS011;18313;48.518;9.124;2022-10-16T06:03:16;1.80;;;1.30;;
31734;SDS011;18313;48.518;9.124;2022-10-16T06:06:08;3.83;;;1.48;;
31734;SDS011;18313;48.518;9.124;2022-10-16T06:08:56;1.80;;;1.20;;
31734;SDS011;18313;48.518;9.124;2022-10-16T06:11:42;2.80;;;1.40;;
31734;SDS011;18313;48.518;9.124;2022-10-16T06:14:28;2.08;;;1.40;;
31734;SDS011;18313;48.518;9.124;2022-10-16T06:17:13;3.25;;;1.30;;
31734;SDS011;18313;48.518;9.124;2022-10-16T06:20:00;2.00;;;1.15;;
31734;SDS011;18313;48.518;9.124;2022-10-16T06:22:45;2.78;;;1.30;;
31734;SDS011;18313;48.518;9.124;2022-10-16T06:25:31;3.20;;;1.50;;
31734;SDS011;18313;48.518;9.124;2022-10-16T06:28:16;3.58;;;1.10;;
31734;SDS011;18313;48.518;9.124;2022-10-16T06:31:03;4.75;;;1.30;;
31734;SDS011;18313;48.518;9.124;2022-10-16T06:33:52;2.20;;;1.38;;
31734;SDS011;18313;48.518;9.124;2022-10-16T06:36:39;4.22;;;1.40;;
31734;SDS011;18313;48.518;9.124;2022-10-16T06:39:25;2.22;;;1.30;;
31734;SDS011;18313;48.518;9.124;2022-10-16T06:42:10;4.20;;;1.42;;
31734;SDS011;18313;48.518;9.124;2022-10-16T06:44:56;2.30;;;1.30;;
31734;SDS011;18313;48.518;9.124;2022-10-16T06:47:41;3.28;;;1.40;;
31734;SDS011;18313;48.518;9.124;2022-10-16T06:50:27;2.83;;;1.77;;
31734;SDS011;18313;48.518;9.124;2022-10-16T06:53:12;5.80;;;1.85;;
31734;SDS011;18313;48.518;9.124;2022-10-16T06:55:58;3.15;;;1.60;;
31734;SDS011;18313;48.518;9.124;2022-10-16T06:58:58;3.53;;;1.73;;
31734;SDS011;18313;48.518;9.124;2022-10-16T07:01:44;4.88;;;1.35;;
31734;SDS011;18313;48.518;9.124;2022-10-16T07:04:30;6.95;;;1.67;;
31734;SDS011;18313;48.518;9.124;2022-10-16T07:07:15;2.83;;;1.38;;
31734;SDS011;18313;48.518;9.124;2022-10-16T07:10:01;4.22;;;1.30;;
31734;SDS011;18313;48.518;9.124;2022-10-16T07:12:47;7.03;;;1.30;;
31734;SDS011;18313;48.518;9.124;2022-10-16T07:15:33;14.23;;;2.55;;
31734;SDS011;18313;48.518;9.124;2022-10-16T07:18:18;3.33;;;1.20;;
31734;SDS011;18313;48.518;9.124;2022-10-16T07:21:07;5.82;;;1.35;;
31734;SDS011;18313;48.518;9.124;2022-10-16T07:23:55;2.00;;;1.13;;
31734;SDS011;18313;48.518;9.124;2022-10-16T07:26:43;4.68;;;1.60;;
31734;SDS011;18313;48.518;9.124;2022-10-16T07:29:31;2.88;;;1.30;;
31734;SDS011;18313;48.518;9.124;2022-10-16T07:32:16;2.65;;;1.27;;
31734;SDS011;18313;48.518;9.124;2022-10-16T07:35:02;2.25;;;1.38;;
31734;SDS011;18313;48.518;9.124;2022-10-16T07:37:47;8.52;;;1.35;;
31734;SDS011;18313;48.518;9.124;2022-10-16T07:40:33;2.20;;;1.30;;
31734;SDS011;18313;48.518;9.124;2022-10-16T07:43:18;6.32;;;1.33;;
31734;SDS011;18313;48.518;9.124;2022-10-16T07:46:04;4.07;;;1.30;;
31734;SDS011;18313;48.518;9.124;2022-10-16T07:48:50;5.00;;;1.20;;
31734;SDS011;18313;48.518;9.124;2022-10-16T07:51:36;3.95;;;1.63;;
31734;SDS011;18313;48.518;9.124;2022-10-16T07:54:23;3.15;;;1.13;;
31734;SDS011;18313;48.518;9.124;2022-10-16T07:57:08;3.53;;;1.20;;
31734;SDS011;18313;48.518;9.124;2022-10-16T07:59:54;8.80;;;1.20;;
31734;SDS011;18313;48.518;9.124;2022-10-16T08:02:40;7.00;;;1.38;;
31734;SDS011;18313;48.518;9.124;2022-10-16T08:05:26;3.65;;;1.95;;
31734;SDS011;18313;48.518;9.124;2022-10-16T08:08:12;7.15;;;1.55;;
31734;SDS011;18313;48.518;9.124;2022-10-16T08:10:59;4.20;;;1.20;;
31734;SDS011;18313;48.518;9.124;2022-10-16T08:13:45;3.42;;;1.00;;
31734;SDS011;18313;48.518;9.124;2022-10-16T08:16:30;4.05;;;1.48;;
31734;SDS011;18313;48.518;9.124;2022-10-16T08:19:16;5.32;;;1.50;;
31734;SDS011;18313;48.518;9.124;2022-10-16T08:22:01;2.55;;;1.23;;
31734;SDS011;18313;48.518;9.124;2022-10-16T08:24:47;4.88;;;1.20;;
31734;SDS011;18313;48.518;9.124;2022-10-16T08:27:33;3.47;;;1.10;;
31734;SDS011;18313;48.518;9.124;2022-10-16T08:30:19;6.93;;;1.20;;
31734;SDS011;18313;48.518;9.124;2022-10-16T08:33:06;4.18;;;1.38;;
31734;SDS011;18313;48.518;9.124;2022-10-16T08:35:52;5.40;;;1.00;;
31734;SDS011;18313;48.518;9.124;2022-10-16T08:38:38;3.90;;;1.10;;
31734;SDS011;18313;48.518;9.124;2022-10-16T08:44:49;5.63;;;1.20;;
31734;SDS011;18313;48.518;9.124;2022-10-16T08:47:56;5.55;;;1.00;;
31734;SDS011;18313;48.518;9.124;2022-10-16T08:50:53;3.55;;;1.00;;
31734;SDS011;18313;48.518;9.124;2022-10-16T08:53:43;4.32;;;1.15;;
31734;SDS011;18313;48.518;9.124;2022-10-16T08:56:34;4.13;;;1.00;;
31734;SDS011;18313;48.518;9.124;2022-10-16T08:59:20;2.08;;;1.10;;
31734;SDS011;18313;48.518;9.124;2022-10-16T09:02:16;4.28;;;1.00;;
31734;SDS011;18313;48.518;9.124;2022-10-16T09:08:15;3.78;;;1.20;;
31734;SDS011;18313;48.518;9.124;2022-10-16T09:17:52;6.43;;;1.08;;
31734;SDS011;18313;48.518;9.124;2022-10-16T09:20:56;2.00;;;1.00;;
31734;SDS011;18313;48.518;9.124;2022-10-16T09:23:57;5.60;;;1.27;;
31734;SDS011;18313;48.518;9.124;2022-10-16T09:26:58;3.95;;;1.10;;
31734;SDS011;18313;48.518;9.124;2022-10-16T09:29:44;2.05;;;1.00;;
31734;SDS011;18313;48.518;9.124;2022-10-16T09:32:29;2.65;;;1.08;;
31734;SDS011;18313;48.518;9.124;2022-10-16T09:35:20;3.67;;;1.30;;
31734;SDS011;18313;48.518;9.124;2022-10-16T09:38:19;6.50;;;1.00;;
31734;SDS011;18313;48.518;9.124;2022-10-16T09:41:14;4.65;;;1.00;;
31734;SDS011;18313;48.518;9.124;2022-10-16T09:44:05;2.10;;;1.00;;
31734;SDS011;18313;48.518;9.124;2022-10-16T09:47:11;5.25;;;1.02;;
31734;SDS011;18313;48.518;9.124;2022-10-16T09:50:00;1.67;;;1.00;;
31734;SDS011;18313;48.518;9.124;2022-10-16T09:52:50;2.42;;;1.20;;
31734;SDS011;18313;48.518;9.124;2022-10-16T09:55:36;3.53;;;1.00;;
31734;SDS011;18313;48.518;9.124;2022-10-16T09:58:32;5.25;;;1.20;;
31734;SDS011;18313;48.518;9.124;2022-10-16T10:01:18;4.80;;;1.33;;
31734;SDS011;18313;48.518;9.124;2022-10-16T10:04:04;2.95;;;1.27;;
31734;SDS011;18313;48.518;9.124;2022-10-16T10:06:54;2.13;;;1.00;;
31734;SDS011;18313;48.518;9.124;2022-10-16T10:09:42;3.03;;;1.10;;
31734;SDS011;18313;48.518;9.124;2022-10-16T10:12:30;2.00;;;1.10;;
31734;SDS011;18313;48.518;9.124;2022-10-16T10:15:18;7.30;;;1.85;;
31734;SDS011;18313;48.518;9.124;2022-10-16T10:18:18;5.28;;;1.30;;
31734;SDS011;18313;48.518;9.124;2022-10-16T10:21:12;6.47;;;1.00;;
31734;SDS011;18313;48.518;9.124;2022-10-16T10:24:00;3.35;;;0.93;;
31734;SDS011;18313;48.518;9.124;2022-10-16T10:26:51;1.95;;;1.02;;
31734;SDS011;18313;48.518;9.124;2022-10-16T10:29:47;2.72;;;1.15;;
31734;SDS011;18313;48.518;9.124;2022-10-16T10:39:11;5.30;;;1.30;;
31734;SDS011;18313;48.518;9.124;2022-10-16T10:42:18;6.25;;;1.10;;
31734;SDS011;18313;48.518;9.124;2022-10-16T11:06:59;2.83;;;1.00;;
31734;SDS011;18313;48.518;9.124;2022-10-16T11:09:51;3.28;;;1.15;;
31734;SDS011;18313;48.518;9.124;2022-10-16T11:13:09;3.08;;;1.02;;
31734;SDS011;18313;48.518;9.124;2022-10-16T11:16:17;6.18;;;1.10;;
31734;SDS011;18313;48.518;9.124;2022-10-16T11:25:26;4.43;;;0.95;;
31734;SDS011;18313;48.518;9.124;2022-10-16T11:28:14;3.58;;;0.80;;
31734;SDS011;18313;48.518;9.124;2022-10-16T11:37:31;4.13;;;0.80;;
31734;SDS011;18313;48.518;9.124;2022-10-16T11:40:29;1.70;;;0.70;;
31734;SDS011;18313;48.518;9.124;2022-10-16T11:43:31;4.75;;;0.90;;
31734;SDS011;18313;48.518;9.124;2022-10-16T11:46:21;2.15;;;0.90;;
31734;SDS011;18313;48.518;9.124;2022-10-16T11:49:13;3.38;;;0.82;;
31734;SDS011;18313;48.518;9.124;2022-10-16T11:52:20;3.30;;;1.00;;
31734;SDS011;18313;48.518;9.124;2022-10-16T12:04:40;2.20;;;0.93;;
31734;SDS011;18313;48.518;9.124;2022-10-16T12:07:37;5.70;;;0.80;;
31734;SDS011;18313;48.518;9.124;2022-10-16T12:10:29;3.17;;;0.90;;
31734;SDS011;18313;48.518;9.124;2022-10-16T12:13:33;2.63;;;0.70;;
31734;SDS011;18313;48.518;9.124;2022-10-16T12:16:23;3.55;;;0.80;;
31734;SDS011;18313;48.518;9.124;2022-10-16T12:19:13;2.25;;;0.88;;
31734;SDS011;18313;48.518;9.124;2022-10-16T12:22:00;1.63;;;0.82;;
31734;SDS011;18313;48.518;9.124;2022-10-16T12:24:50;3.28;;;0.80;;
31734;SDS011;18313;48.518;9.124;2022-10-16T12:27:36;3.88;;;1.00;;
31734;SDS011;18313;48.518;9.124;2022-10-16T12:30:22;2.80;;;0.80;;
31734;SDS011;18313;48.518;9.124;2022-10-16T12:33:23;3.20;;;1.42;;
31734;SDS011;18313;48.518;9.124;2022-10-16T12:36:13;4.78;;;0.85;;
31734;SDS011;18313;48.518;9.124;2022-10-16T12:39:01;3.17;;;0.80;;
31734;SDS011;18313;48.518;9.124;2022-10-16T12:41:47;4.22;;;1.00;;
31734;SDS011;18313;48.518;9.124;2022-10-16T12:44:33;4.68;;;1.33;;
31734;SDS011;18313;48.518;9.124;2022-10-16T12:47:24;1.95;;;1.05;;
31734;SDS011;18313;48.518;9.124;2022-10-16T12:50:26;1.55;;;1.00;;
31734;SDS011;18313;48.518;9.124;2022-10-16T12:53:21;1.88;;;1.00;;
31734;SDS011;18313;48.518;9.124;2022-10-16T12:56:46;5.45;;;1.10;;
31734;SDS011;18313;48.518;9.124;2022-10-16T13:02:39;2.33;;;1.10;;
31734;SDS011;18313;48.518;9.124;2022-10-16T13:20:35;4.82;;;1.02;;
31734;SDS011;18313;48.518;9.124;2022-10-16T13:26:43;6.90;;;1.15;;
31734;SDS011;18313;48.518;9.124;2022-10-16T13:29:37;4.05;;;1.15;;
31734;SDS011;18313;48.518;9.124;2022-10-16T13:32:26;1.77;;;1.00;;
31734;SDS011;18313;48.518;9.124;2022-10-16T13:35:18;5.43;;;1.20;;
31734;SDS011;18313;48.518;9.124;2022-10-16T13:38:11;4.22;;;1.27;;
31734;SDS011;18313;48.518;9.124;2022-10-16T13:43:49;6.38;;;1.33;;
31734;SDS011;18313;48.518;9.124;2022-10-16T13:46:37;2.30;;;1.00;;
31734;SDS011;18313;48.518;9.124;2022-10-16T13:49:22;2.33;;;1.00;;
31734;SDS011;18313;48.518;9.124;2022-10-16T13:52:16;4.55;;;1.23;;
31734;SDS011;18313;48.518;9.124;2022-10-16T13:55:13;4.53;;;1.20;;
31734;SDS011;18313;48.518;9.124;2022-10-16T13:58:12;3.27;;;1.10;;
31734;SDS011;18313;48.518;9.124;2022-10-16T14:01:00;1.60;;;1.08;;
31734;SDS011;18313;48.518;9.124;2022-10-16T14:03:50;1.90;;;1.05;;
31734;SDS011;18313;48.518;9.124;2022-10-16T14:06:36;2.85;;;1.10;;
31734;SDS011;18313;48.518;9.124;2022-10-16T14:09:27;6.15;;;1.30;;
31734;SDS011;18313;48.518;9.124;2022-10-16T14:12:14;2.22;;;1.02;;
31734;SDS011;18313;48.518;9.124;2022-10-16T14:15:00;5.60;;;1.10;;
31734;SDS011;18313;48.518;9.124;2022-10-16T14:17:47;4.90;;;1.25;;
31734;SDS011;18313;48.518;9.124;2022-10-16T14:20:35;5.35;;;1.27;;
31734;SDS011;18313;48.518;9.124;2022-10-16T14:23:28;5.00;;;1.50;;
31734;SDS011;18313;48.518;9.124;2022-10-16T14:26:17;6.45;;;1.40;;
31734;SDS011;18313;48.518;9.124;2022-10-16T14:29:11;1.75;;;1.10;;
31734;SDS011;18313;48.518;9.124;2022-10-16T14:32:03;4.10;;;1.27;;
31734;SDS011;18313;48.518;9.124;2022-10-16T14:34:53;2.85;;;1.00;;
31734;SDS011;18313;48.518;9.124;2022-10-16T14:37:39;3.42;;;1.20;;
31734;SDS011;18313;48.518;9.124;2022-10-16T14:40:26;2.33;;;1.15;;
31734;SDS011;18313;48.518;9.124;2022-10-16T14:46:18;4.53;;;1.17;;
31734;SDS011;18313;48.518;9.124;2022-10-16T14:51:56;4.40;;;1.00;;
31734;SDS011;18313;48.518;9.124;2022-10-16T14:54:43;7.70;;;1.20;;
31734;SDS011;18313;48.518;9.124;2022-10-16T14:57:28;2.30;;;1.20;;
31734;SDS011;18313;48.518;9.124;2022-10-16T15:00:22;2.70;;;1.17;;
31734;SDS011;18313;48.518;9.124;2022-10-16T15:03:09;5.53;;;1.30;;
31734;SDS011;18313;48.518;9.124;2022-10-16T15:05:54;3.58;;;1.05;;
31734;SDS011;18313;48.518;9.124;2022-10-16T15:08:40;2.40;;;1.08;;
31734;SDS011;18313;48.518;9.124;2022-10-16T15:11:26;5.40;;;1.20;;
31734;SDS011;18313;48.518;9.124;2022-10-16T15:14:12;4.85;;;1.27;;
31734;SDS011;18313;48.518;9.124;2022-10-16T15:16:58;1.90;;;1.02;;
31734;SDS011;18313;48.518;9.124;2022-10-16T15:19:43;2.00;;;0.90;;
31734;SDS011;18313;48.518;9.124;2022-10-16T15:22:29;4.40;;;1.20;;
31734;SDS011;18313;48.518;9.124;2022-10-16T15:28:12;7.43;;;1.40;;
31734;SDS011;18313;48.518;9.124;2022-10-16T15:30:58;2.85;;;1.25;;
31734;SDS011;18313;48.518;9.124;2022-10-16T15:33:44;4.20;;;1.10;;
31734;SDS011;18313;48.518;9.124;2022-10-16T15:36:37;7.80;;;1.55;;
31734;SDS011;18313;48.518;9.124;2022-10-16T15:39:23;3.85;;;1.50;;
31734;SDS011;18313;48.518;9.124;2022-10-16T15:42:09;3.20;;;1.20;;
31734;SDS011;18313;48.518;9.124;2022-10-16T15:44:54;2.58;;;1.10;;
31734;SDS011;18313;48.518;9.124;2022-10-16T15:47:40;4.25;;;1.10;;
31734;SDS011;18313;48.518;9.124;2022-10-16T15:50:30;3.13;;;1.20;;
31734;SDS011;18313;48.518;9.124;2022-10-16T15:53:16;2.55;;;1.40;;
31734;SDS011;18313;48.518;9.124;2022-10-16T15:56:03;3.72;;;1.80;;
31734;SDS011;18313;48.518;9.124;2022-10-16T15:58:53;6.55;;;2.30;;
31734;SDS011;18313;48.518;9.124;2022-10-16T16:01:38;6.13;;;2.38;;
31734;SDS011;18313;48.518;9.124;2022-10-16T16:04:24;7.25;;;2.47;;
31734;SDS011;18313;48.518;9.124;2022-10-16T16:07:26;4.68;;;2.28;;
31734;SDS011;18313;48.518;9.124;2022-10-16T16:10:12;6.90;;;2.75;;
31734;SDS011;18313;48.518;9.124;2022-10-16T16:12:58;6.78;;;2.60;;
31734;SDS011;18313;48.518;9.124;2022-10-16T16:15:43;5.32;;;3.00;;
31734;SDS011;18313;48.518;9.124;2022-10-16T16:18:29;7.90;;;3.20;;
31734;SDS011;18313;48.518;9.124;2022-10-16T16:21:14;5.03;;;2.70;;
31734;SDS011;18313;48.518;9.124;2022-10-16T16:24:00;5.28;;;2.90;;
31734;SDS011;18313;48.518;9.124;2022-10-16T16:26:45;7.78;;;2.90;;
31734;SDS011;18313;48.518;9.124;2022-10-16T16:29:31;8.45;;;3.75;;
31734;SDS011;18313;48.518;9.124;2022-10-16T16:32:17;14.55;;;4.50;;
31734;SDS011;18313;48.518;9.124;2022-10-16T16:35:03;11.60;;;4.70;;
31734;SDS011;18313;48.518;9.124;2022-10-16T16:37:49;13.98;;;4.13;;
31734;SDS011;18313;48.518;9.124;2022-10-16T16:40:34;7.80;;;3.80;;
31734;SDS011;18313;48.518;9.124;2022-10-16T16:43:26;7.07;;;3.90;;
31734;SDS011;18313;48.518;9.124;2022-10-16T16:46:12;7.85;;;3.63;;
31734;SDS011;18313;48.518;9.124;2022-10-16T16:48:59;6.10;;;3.30;;
31734;SDS011;18313;48.518;9.124;2022-10-16T16:51:45;6.55;;;3.10;;
31734;SDS011;18313;48.518;9.124;2022-10-16T16:54:31;8.40;;;3.00;;
31734;SDS011;18313;48.518;9.124;2022-10-16T16:57:17;5.95;;;2.20;;
31734;SDS011;18313;48.518;9.124;2022-10-16T17:00:04;4.40;;;2.00;;
31734;SDS011;18313;48.518;9.124;2022-10-16T17:02:50;5.97;;;2.05;;
31734;SDS011;18313;48.518;9.124;2022-10-16T17:05:36;6.15;;;1.60;;
31734;SDS011;18313;48.518;9.124;2022-10-16T17:08:22;3.30;;;1.80;;
31734;SDS011;18313;48.518;9.124;2022-10-16T17:11:11;4.03;;;1.80;;
31734;SDS011;18313;48.518;9.124;2022-10-16T17:13:59;6.60;;;1.80;;
31734;SDS011;18313;48.518;9.124;2022-10-16T17:16:45;8.52;;;1.42;;
31734;SDS011;18313;48.518;9.124;2022-10-16T17:19:32;3.38;;;1.50;;
31734;SDS011;18313;48.518;9.124;2022-10-16T17:22:18;2.67;;;1.50;;
31734;SDS011;18313;48.518;9.124;2022-10-16T17:25:04;3.28;;;1.73;;
31734;SDS011;18313;48.518;9.124;2022-10-16T17:27:51;4.53;;;1.70;;
31734;SDS011;18313;48.518;9.124;2022-10-16T17:30:37;5.05;;;1.65;;
31734;SDS011;18313;48.518;9.124;2022-10-16T17:34:35;4.63;;;1.42;;
31734;SDS011;18313;48.518;9.124;2022-10-16T17:37:21;3.40;;;1.40;;
31734;SDS011;18313;48.518;9.124;2022-10-16T17:40:07;3.90;;;1.35;;
31734;SDS011;18313;48.518;9.124;2022-10-16T17:42:54;5.22;;;1.20;;
31734;SDS011;18313;48.518;9.124;2022-10-16T17:45:40;3.60;;;1.40;;
31734;SDS011;18313;48.518;9.124;2022-10-16T17:48:25;4.22;;;1.70;;
31734;SDS011;18313;48.518;9.124;2022-10-16T17:51:12;3.33;;;1.48;;
31734;SDS011;18313;48.518;9.124;2022-10-16T17:53:59;6.60;;;1.80;;
31734;SDS011;18313;48.518;9.124;2022-10-16T17:56:46;6.03;;;1.70;;
31734;SDS011;18313;48.518;9.124;2022-10-16T17:59:32;4.28;;;1.58;;
31734;SDS011;18313;48.518;9.124;2022-10-16T18:02:18;15.85;;;2.83;;
31734;SDS011;18313;48.518;9.124;2022-10-16T18:05:03;4.68;;;1.52;;
31734;SDS011;18313;48.518;9.124;2022-10-16T18:07:50;3.85;;;1.52;;
31734;SDS011;18313;48.518;9.124;2022-10-16T18:10:43;3.60;;;1.60;;
31734;SDS011;18313;48.518;9.124;2022-10-16T18:13:30;4.18;;;1.50;;
31734;SDS011;18313;48.518;9.124;2022-10-16T18:16:15;3.78;;;1.45;;
31734;SDS011;18313;48.518;9.124;2022-10-16T18:19:01;3.75;;;1.50;;
31734;SDS011;18313;48.518;9.124;2022-10-16T18:21:48;2.72;;;1.33;;
31734;SDS011;18313;48.518;9.124;2022-10-16T18:24:34;5.95;;;1.50;;
31734;SDS011;18313;48.518;9.124;2022-10-16T18:27:20;3.42;;;1.35;;
31734;SDS011;18313;48.518;9.124;2022-10-16T18:30:05;3.78;;;1.60;;
31734;SDS011;18313;48.518;9.124;2022-10-16T18:32:51;4.70;;;1.20;;
31734;SDS011;18313;48.518;9.124;2022-10-16T18:35:37;3.80;;;1.52;;
31734;SDS011;18313;48.518;9.124;2022-10-16T18:38:24;5.97;;;1.50;;
31734;SDS011;18313;48.518;9.124;2022-10-16T18:41:10;2.65;;;1.50;;
31734;SDS011;18313;48.518;9.124;2022-10-16T18:43:55;3.25;;;1.40;;
31734;SDS011;18313;48.518;9.124;2022-10-16T18:46:41;3.60;;;1.48;;
31734;SDS011;18313;48.518;9.124;2022-10-16T18:49:26;3.08;;;1.25;;